sensor_id;sensor_type;location;lat;lon;timestamp;temperature;humidity
13650;DHT22;6898;50.918;4.688;2023-02-13T00:00:44;4.00;99.90
13650;DHT22;6898;50.918;4.688;2023-02-13T00:03:13;4.00;99.90
13650;DHT22;6898;50.918;4.688;2023-02-13T00:05:41;4.10;99.90
13650;DHT22;6898;50.918;4.688;2023-02-13T00:08:09;4.00;99.90
13650;DHT22;6898;50.918;4.688;2023-02-13T00:10:38;3.90;99.90
13650;DHT22;6898;50.918;4.688;2023-02-13T00:13:06;3.90;99.90
13650;DHT22;6898;50.918;4.688;2023-02-13T00:15:34;3.90;99.90
13650;DHT22;6898;50.918;4.688;2023-02-13T00:18:03;3.90;99.90
13650;DHT22;6898;50.918;4.688;2023-02-13T00:20:31;3.90;99.90
13650;DHT22;6898;50.918;4.688;2023-02-13T00:22:59;3.90;99.90
13650;DHT22;6898;50.918;4.688;2023-02-13T00:25:27;3.80;99.90
13650;DHT22;6898;50.918;4.688;2023-02-13T00:27:56;3.80;99.90
13650;DHT22;6898;50.918;4.688;2023-02-13T00:30:24;3.70;99.90
13650;DHT22;6898;50.918;4.688;2023-02-13T00:32:52;3.70;99.90
13650;DHT22;6898;50.918;4.688;2023-02-13T00:35:20;3.70;99.90
13650;DHT22;6898;50.918;4.688;2023-02-13T00:37:48;3.70;99.90
13650;DHT22;6898;50.918;4.688;2023-02-13T00:40:16;3.60;99.90
13650;DHT22;6898;50.918;4.688;2023-02-13T00:42:44;3.60;99.90
13650;DHT22;6898;50.918;4.688;2023-02-13T00:45:13;3.50;99.90
13650;DHT22;6898;50.918;4.688;2023-02-13T00:47:41;3.50;99.90
13650;DHT22;6898;50.918;4.688;2023-02-13T00:50:09;3.40;99.90
13650;DHT22;6898;50.918;4.688;2023-02-13T00:52:38;3.40;99.90
13650;DHT22;6898;50.918;4.688;2023-02-13T00:55:06;3.40;99.90
13650;DHT22;6898;50.918;4.688;2023-02-13T00:57:34;3.30;99.90
13650;DHT22;6898;50.918;4.688;2023-02-13T01:00:02;3.30;99.90
13650;DHT22;6898;50.918;4.688;2023-02-13T01:02:31;3.30;99.90
13650;DHT22;6898;50.918;4.688;2023-02-13T01:05:01;3.30;99.90
13650;DHT22;6898;50.918;4.688;2023-02-13T01:07:29;3.20;99.90
13650;DHT22;6898;50.918;4.688;2023-02-13T01:09:57;3.30;99.90
13650;DHT22;6898;50.918;4.688;2023-02-13T01:12:25;3.20;99.90
13650;DHT22;6898;50.918;4.688;2023-02-13T01:14:53;3.20;99.90
13650;DHT22;6898;50.918;4.688;2023-02-13T01:17:21;3.10;99.90
13650;DHT22;6898;50.918;4.688;2023-02-13T01:19:51;3.10;99.90
13650;DHT22;6898;50.918;4.688;2023-02-13T01:22:20;3.00;99.90
13650;DHT22;6898;50.918;4.688;2023-02-13T01:24:48;3.00;99.90
13650;DHT22;6898;50.918;4.688;2023-02-13T01:27:16;2.90;99.90
13650;DHT22;6898;50.918;4.688;2023-02-13T01:29:44;2.90;99.90
13650;DHT22;6898;50.918;4.688;2023-02-13T01:32:12;2.90;99.90
13650;DHT22;6898;50.918;4.688;2023-02-13T01:34:40;2.90;99.90
13650;DHT22;6898;50.918;4.688;2023-02-13T01:37:10;2.80;99.90
13650;DHT22;6898;50.918;4.688;2023-02-13T01:39:39;2.80;99.90
13650;DHT22;6898;50.918;4.688;2023-02-13T01:42:09;2.80;99.90
13650;DHT22;6898;50.918;4.688;2023-02-13T01:44:45;2.70;99.90
13650;DHT22;6898;50.918;4.688;2023-02-13T01:47:14;2.70;99.90
13650;DHT22;6898;50.918;4.688;2023-02-13T01:49:43;2.70;99.90
13650;DHT22;6898;50.918;4.688;2023-02-13T01:52:13;2.70;99.90
13650;DHT22;6898;50.918;4.688;2023-02-13T01:54:42;2.60;99.90
13650;DHT22;6898;50.918;4.688;2023-02-13T01:57:11;2.70;99.90
13650;DHT22;6898;50.918;4.688;2023-02-13T01:59:41;2.70;99.90
13650;DHT22;6898;50.918;4.688;2023-02-13T02:02:11;2.70;99.90
13650;DHT22;6898;50.918;4.688;2023-02-13T02:04:39;2.70;99.90
13650;DHT22;6898;50.918;4.688;2023-02-13T02:07:09;2.70;99.90
13650;DHT22;6898;50.918;4.688;2023-02-13T02:09:40;2.70;99.90
13650;DHT22;6898;50.918;4.688;2023-02-13T02:12:12;2.70;99.90
13650;DHT22;6898;50.918;4.688;2023-02-13T02:14:41;2.70;99.90
13650;DHT22;6898;50.918;4.688;2023-02-13T02:17:09;2.60;99.90
13650;DHT22;6898;50.918;4.688;2023-02-13T02:19:39;2.60;99.90
13650;DHT22;6898;50.918;4.688;2023-02-13T02:22:23;2.50;99.90
13650;DHT22;6898;50.918;4.688;2023-02-13T02:25:07;2.50;99.90
13650;DHT22;6898;50.918;4.688;2023-02-13T02:27:46;2.50;99.90
13650;DHT22;6898;50.918;4.688;2023-02-13T02:33:17;2.30;99.90
13650;DHT22;6898;50.918;4.688;2023-02-13T02:35:49;2.20;99.90
13650;DHT22;6898;50.918;4.688;2023-02-13T02:38:24;2.10;99.90
13650;DHT22;6898;50.918;4.688;2023-02-13T02:40:57;2.10;99.90
13650;DHT22;6898;50.918;4.688;2023-02-13T02:43:29;2.00;99.90
13650;DHT22;6898;50.918;4.688;2023-02-13T02:46:01;2.00;99.90
13650;DHT22;6898;50.918;4.688;2023-02-13T02:48:37;2.10;99.90
13650;DHT22;6898;50.918;4.688;2023-02-13T02:51:25;2.00;99.90
13650;DHT22;6898;50.918;4.688;2023-02-13T02:54:00;2.00;99.90
13650;DHT22;6898;50.918;4.688;2023-02-13T02:56:50;2.00;99.90
13650;DHT22;6898;50.918;4.688;2023-02-13T02:59:19;2.00;99.90
13650;DHT22;6898;50.918;4.688;2023-02-13T03:02:06;2.00;99.90
13650;DHT22;6898;50.918;4.688;2023-02-13T03:04:54;1.90;99.90
13650;DHT22;6898;50.918;4.688;2023-02-13T03:07:40;1.80;99.90
13650;DHT22;6898;50.918;4.688;2023-02-13T03:10:09;1.80;99.90
13650;DHT22;6898;50.918;4.688;2023-02-13T03:12:56;1.80;99.90
13650;DHT22;6898;50.918;4.688;2023-02-13T03:15:52;1.80;99.90
13650;DHT22;6898;50.918;4.688;2023-02-13T03:18:41;1.90;99.90
13650;DHT22;6898;50.918;4.688;2023-02-13T03:21:33;2.00;99.90
13650;DHT22;6898;50.918;4.688;2023-02-13T03:24:24;2.10;99.90
13650;DHT22;6898;50.918;4.688;2023-02-13T03:26:56;2.20;99.90
13650;DHT22;6898;50.918;4.688;2023-02-13T03:29:27;2.20;99.90
13650;DHT22;6898;50.918;4.688;2023-02-13T03:32:22;2.20;99.90
13650;DHT22;6898;50.918;4.688;2023-02-13T03:34:54;2.10;99.90
13650;DHT22;6898;50.918;4.688;2023-02-13T03:37:43;2.10;99.90
13650;DHT22;6898;50.918;4.688;2023-02-13T03:40:26;2.20;99.90
13650;DHT22;6898;50.918;4.688;2023-02-13T03:42:57;2.30;99.90
13650;DHT22;6898;50.918;4.688;2023-02-13T03:45:27;2.40;99.90
13650;DHT22;6898;50.918;4.688;2023-02-13T03:48:15;2.30;99.90
13650;DHT22;6898;50.918;4.688;2023-02-13T03:50:59;2.30;99.90
13650;DHT22;6898;50.918;4.688;2023-02-13T03:53:30;2.40;99.90
13650;DHT22;6898;50.918;4.688;2023-02-13T03:56:00;2.40;99.90
13650;DHT22;6898;50.918;4.688;2023-02-13T03:58:47;2.50;99.90
13650;DHT22;6898;50.918;4.688;2023-02-13T04:01:34;2.50;99.90
13650;DHT22;6898;50.918;4.688;2023-02-13T04:04:04;2.60;99.90
13650;DHT22;6898;50.918;4.688;2023-02-13T04:06:35;2.60;99.90
13650;DHT22;6898;50.918;4.688;2023-02-13T04:09:05;2.60;99.90
13650;DHT22;6898;50.918;4.688;2023-02-13T04:11:34;2.50;99.90
13650;DHT22;6898;50.918;4.688;2023-02-13T04:14:05;2.50;99.90
13650;DHT22;6898;50.918;4.688;2023-02-13T04:16:35;2.40;99.90
13650;DHT22;6898;50.918;4.688;2023-02-13T04:19:05;2.40;99.90
13650;DHT22;6898;50.918;4.688;2023-02-13T04:21:35;2.40;99.90
13650;DHT22;6898;50.918;4.688;2023-02-13T04:24:03;2.40;99.90
13650;DHT22;6898;50.918;4.688;2023-02-13T04:26:33;2.40;99.90
13650;DHT22;6898;50.918;4.688;2023-02-13T04:29:02;2.40;99.90
13650;DHT22;6898;50.918;4.688;2023-02-13T04:31:30;2.50;99.90
13650;DHT22;6898;50.918;4.688;2023-02-13T04:33:58;2.30;99.90
13650;DHT22;6898;50.918;4.688;2023-02-13T04:36:26;2.30;99.90
13650;DHT22;6898;50.918;4.688;2023-02-13T04:38:54;2.30;99.90
13650;DHT22;6898;50.918;4.688;2023-02-13T04:41:22;2.30;99.90
13650;DHT22;6898;50.918;4.688;2023-02-13T04:43:52;2.30;99.90
13650;DHT22;6898;50.918;4.688;2023-02-13T04:46:20;2.30;99.90
13650;DHT22;6898;50.918;4.688;2023-02-13T04:48:48;2.20;99.90
13650;DHT22;6898;50.918;4.688;2023-02-13T04:51:16;2.20;99.90
13650;DHT22;6898;50.918;4.688;2023-02-13T04:53:44;2.20;99.90
13650;DHT22;6898;50.918;4.688;2023-02-13T04:56:12;2.20;99.90
13650;DHT22;6898;50.918;4.688;2023-02-13T04:58:40;2.20;99.90
13650;DHT22;6898;50.918;4.688;2023-02-13T05:01:13;2.20;99.90
13650;DHT22;6898;50.918;4.688;2023-02-13T05:03:41;2.20;99.90
13650;DHT22;6898;50.918;4.688;2023-02-13T05:06:09;2.10;99.90
13650;DHT22;6898;50.918;4.688;2023-02-13T05:08:37;2.10;99.90
13650;DHT22;6898;50.918;4.688;2023-02-13T05:11:06;2.10;99.90
13650;DHT22;6898;50.918;4.688;2023-02-13T05:13:34;2.00;99.90
13650;DHT22;6898;50.918;4.688;2023-02-13T05:16:02;2.00;99.90
13650;DHT22;6898;50.918;4.688;2023-02-13T05:18:31;2.00;99.90
13650;DHT22;6898;50.918;4.688;2023-02-13T05:20:59;2.00;99.90
13650;DHT22;6898;50.918;4.688;2023-02-13T05:23:44;2.00;99.90
13650;DHT22;6898;50.918;4.688;2023-02-13T05:26:12;2.00;99.90
13650;DHT22;6898;50.918;4.688;2023-02-13T05:28:40;1.90;99.90
13650;DHT22;6898;50.918;4.688;2023-02-13T05:31:26;1.80;99.90
13650;DHT22;6898;50.918;4.688;2023-02-13T05:33:55;1.80;99.90
13650;DHT22;6898;50.918;4.688;2023-02-13T05:36:26;1.80;99.90
13650;DHT22;6898;50.918;4.688;2023-02-13T05:38:56;1.90;99.90
13650;DHT22;6898;50.918;4.688;2023-02-13T05:41:24;1.80;99.90
13650;DHT22;6898;50.918;4.688;2023-02-13T05:43:52;1.80;99.90
13650;DHT22;6898;50.918;4.688;2023-02-13T05:46:20;1.80;99.90
13650;DHT22;6898;50.918;4.688;2023-02-13T05:48:48;1.80;99.90
13650;DHT22;6898;50.918;4.688;2023-02-13T05:51:18;1.70;99.90
13650;DHT22;6898;50.918;4.688;2023-02-13T05:53:49;1.60;99.90
13650;DHT22;6898;50.918;4.688;2023-02-13T05:56:17;1.50;99.90
13650;DHT22;6898;50.918;4.688;2023-02-13T05:58:45;1.50;99.90
13650;DHT22;6898;50.918;4.688;2023-02-13T06:01:13;1.50;99.90
13650;DHT22;6898;50.918;4.688;2023-02-13T06:03:41;1.40;99.90
13650;DHT22;6898;50.918;4.688;2023-02-13T06:06:09;1.30;99.90
13650;DHT22;6898;50.918;4.688;2023-02-13T06:08:39;1.30;99.90
13650;DHT22;6898;50.918;4.688;2023-02-13T06:11:07;1.30;99.90
13650;DHT22;6898;50.918;4.688;2023-02-13T06:13:35;1.20;99.90
13650;DHT22;6898;50.918;4.688;2023-02-13T06:16:06;1.20;99.90
13650;DHT22;6898;50.918;4.688;2023-02-13T06:18:37;1.10;99.90
13650;DHT22;6898;50.918;4.688;2023-02-13T06:21:09;1.20;99.90
13650;DHT22;6898;50.918;4.688;2023-02-13T06:23:39;1.10;99.90
13650;DHT22;6898;50.918;4.688;2023-02-13T06:26:07;1.10;99.90
13650;DHT22;6898;50.918;4.688;2023-02-13T06:28:38;1.10;99.90
13650;DHT22;6898;50.918;4.688;2023-02-13T06:31:09;1.00;99.90
13650;DHT22;6898;50.918;4.688;2023-02-13T06:33:38;1.00;99.90
13650;DHT22;6898;50.918;4.688;2023-02-13T06:36:06;1.00;99.90
13650;DHT22;6898;50.918;4.688;2023-02-13T06:38:34;1.00;99.90
13650;DHT22;6898;50.918;4.688;2023-02-13T06:43:47;0.90;99.90
13650;DHT22;6898;50.918;4.688;2023-02-13T06:46:15;0.80;99.90
13650;DHT22;6898;50.918;4.688;2023-02-13T06:48:43;0.80;99.90
13650;DHT22;6898;50.918;4.688;2023-02-13T06:51:11;0.80;99.90
13650;DHT22;6898;50.918;4.688;2023-02-13T06:53:39;0.80;99.90
13650;DHT22;6898;50.918;4.688;2023-02-13T06:56:08;0.80;99.90
13650;DHT22;6898;50.918;4.688;2023-02-13T06:58:36;0.80;99.90
13650;DHT22;6898;50.918;4.688;2023-02-13T07:01:07;0.80;99.90
13650;DHT22;6898;50.918;4.688;2023-02-13T07:03:35;0.80;99.90
13650;DHT22;6898;50.918;4.688;2023-02-13T07:06:03;0.80;99.90
13650;DHT22;6898;50.918;4.688;2023-02-13T07:08:31;0.80;99.90
13650;DHT22;6898;50.918;4.688;2023-02-13T07:10:59;0.80;99.90
13650;DHT22;6898;50.918;4.688;2023-02-13T07:13:27;0.90;99.90
13650;DHT22;6898;50.918;4.688;2023-02-13T07:15:58;0.90;99.90
13650;DHT22;6898;50.918;4.688;2023-02-13T07:18:31;0.90;99.90
13650;DHT22;6898;50.918;4.688;2023-02-13T07:20:59;1.00;99.90
13650;DHT22;6898;50.918;4.688;2023-02-13T07:23:27;1.00;99.90
13650;DHT22;6898;50.918;4.688;2023-02-13T07:25:57;1.10;99.90
13650;DHT22;6898;50.918;4.688;2023-02-13T07:28:25;1.00;99.90
13650;DHT22;6898;50.918;4.688;2023-02-13T07:30:54;1.10;99.90
13650;DHT22;6898;50.918;4.688;2023-02-13T07:33:22;1.10;99.90
13650;DHT22;6898;50.918;4.688;2023-02-13T07:35:51;1.10;99.90
13650;DHT22;6898;50.918;4.688;2023-02-13T07:38:19;1.10;99.90
13650;DHT22;6898;50.918;4.688;2023-02-13T07:40:48;1.30;99.90
13650;DHT22;6898;50.918;4.688;2023-02-13T07:43:15;1.50;99.90
13650;DHT22;6898;50.918;4.688;2023-02-13T07:45:43;1.40;99.90
13650;DHT22;6898;50.918;4.688;2023-02-13T07:48:12;1.50;99.90
13650;DHT22;6898;50.918;4.688;2023-02-13T07:50:40;1.60;99.90
13650;DHT22;6898;50.918;4.688;2023-02-13T07:53:09;1.60;99.90
13650;DHT22;6898;50.918;4.688;2023-02-13T07:55:37;1.70;99.90
13650;DHT22;6898;50.918;4.688;2023-02-13T07:58:06;1.70;99.90
13650;DHT22;6898;50.918;4.688;2023-02-13T08:00:34;1.80;99.90
13650;DHT22;6898;50.918;4.688;2023-02-13T08:03:02;2.20;99.90
13650;DHT22;6898;50.918;4.688;2023-02-13T08:05:30;3.00;99.90
13650;DHT22;6898;50.918;4.688;2023-02-13T08:07:59;3.70;99.90
13650;DHT22;6898;50.918;4.688;2023-02-13T08:10:28;4.60;99.90
13650;DHT22;6898;50.918;4.688;2023-02-13T08:13:14;5.30;99.90
13650;DHT22;6898;50.918;4.688;2023-02-13T08:15:42;5.70;99.90
13650;DHT22;6898;50.918;4.688;2023-02-13T08:18:11;5.80;99.90
13650;DHT22;6898;50.918;4.688;2023-02-13T08:20:39;5.80;99.90
13650;DHT22;6898;50.918;4.688;2023-02-13T08:23:08;5.70;99.90
13650;DHT22;6898;50.918;4.688;2023-02-13T08:25:38;5.50;99.90
13650;DHT22;6898;50.918;4.688;2023-02-13T08:28:07;5.40;99.90
13650;DHT22;6898;50.918;4.688;2023-02-13T08:30:35;5.30;99.90
13650;DHT22;6898;50.918;4.688;2023-02-13T08:33:03;5.00;99.90
13650;DHT22;6898;50.918;4.688;2023-02-13T08:35:31;4.70;99.90
13650;DHT22;6898;50.918;4.688;2023-02-13T08:38:00;4.40;99.90
13650;DHT22;6898;50.918;4.688;2023-02-13T08:40:29;4.30;99.90
13650;DHT22;6898;50.918;4.688;2023-02-13T08:43:01;4.20;99.90
13650;DHT22;6898;50.918;4.688;2023-02-13T08:45:30;4.10;99.90
13650;DHT22;6898;50.918;4.688;2023-02-13T08:47:58;4.00;99.90
13650;DHT22;6898;50.918;4.688;2023-02-13T08:50:26;4.00;99.90
13650;DHT22;6898;50.918;4.688;2023-02-13T08:52:54;4.00;99.90
13650;DHT22;6898;50.918;4.688;2023-02-13T08:55:24;3.90;99.90
13650;DHT22;6898;50.918;4.688;2023-02-13T08:57:52;4.00;99.90
13650;DHT22;6898;50.918;4.688;2023-02-13T09:00:23;4.00;99.90
13650;DHT22;6898;50.918;4.688;2023-02-13T09:02:51;4.00;99.90
13650;DHT22;6898;50.918;4.688;2023-02-13T09:05:19;4.00;99.90
13650;DHT22;6898;50.918;4.688;2023-02-13T09:07:47;4.10;99.90
13650;DHT22;6898;50.918;4.688;2023-02-13T09:10:16;4.10;99.90
13650;DHT22;6898;50.918;4.688;2023-02-13T09:12:44;4.20;99.90
13650;DHT22;6898;50.918;4.688;2023-02-13T09:15:18;4.30;99.90
13650;DHT22;6898;50.918;4.688;2023-02-13T09:17:47;4.30;99.90
13650;DHT22;6898;50.918;4.688;2023-02-13T09:20:15;4.40;99.90
13650;DHT22;6898;50.918;4.688;2023-02-13T09:22:43;4.50;99.90
13650;DHT22;6898;50.918;4.688;2023-02-13T09:25:11;4.60;99.90
13650;DHT22;6898;50.918;4.688;2023-02-13T09:27:39;4.70;99.90
13650;DHT22;6898;50.918;4.688;2023-02-13T09:30:08;4.70;99.90
13650;DHT22;6898;50.918;4.688;2023-02-13T09:32:36;4.80;99.90
13650;DHT22;6898;50.918;4.688;2023-02-13T09:35:05;4.90;99.90
13650;DHT22;6898;50.918;4.688;2023-02-13T09:37:34;4.90;99.90
13650;DHT22;6898;50.918;4.688;2023-02-13T09:40:02;5.00;99.90
13650;DHT22;6898;50.918;4.688;2023-02-13T09:42:30;5.10;99.90
13650;DHT22;6898;50.918;4.688;2023-02-13T09:45:03;5.20;99.90
13650;DHT22;6898;50.918;4.688;2023-02-13T09:47:31;5.30;99.90
13650;DHT22;6898;50.918;4.688;2023-02-13T09:50:02;5.40;99.90
13650;DHT22;6898;50.918;4.688;2023-02-13T09:52:33;5.50;99.90
13650;DHT22;6898;50.918;4.688;2023-02-13T09:55:01;5.50;99.90
13650;DHT22;6898;50.918;4.688;2023-02-13T09:57:30;5.60;99.90
13650;DHT22;6898;50.918;4.688;2023-02-13T10:00:02;5.70;99.90
13650;DHT22;6898;50.918;4.688;2023-02-13T10:02:41;5.70;99.90
13650;DHT22;6898;50.918;4.688;2023-02-13T10:08:00;5.90;99.90
13650;DHT22;6898;50.918;4.688;2023-02-13T10:10:33;6.00;99.90
13650;DHT22;6898;50.918;4.688;2023-02-13T10:13:11;6.10;99.90
13650;DHT22;6898;50.918;4.688;2023-02-13T10:15:50;6.10;99.90
13650;DHT22;6898;50.918;4.688;2023-02-13T10:18:20;6.20;99.90
13650;DHT22;6898;50.918;4.688;2023-02-13T10:20:49;6.30;99.90
13650;DHT22;6898;50.918;4.688;2023-02-13T10:23:22;6.40;99.90
13650;DHT22;6898;50.918;4.688;2023-02-13T10:25:52;6.40;99.90
13650;DHT22;6898;50.918;4.688;2023-02-13T10:28:27;6.50;99.90
13650;DHT22;6898;50.918;4.688;2023-02-13T10:30:57;6.50;99.90
13650;DHT22;6898;50.918;4.688;2023-02-13T10:33:27;6.60;99.90
13650;DHT22;6898;50.918;4.688;2023-02-13T10:35:58;6.70;99.90
13650;DHT22;6898;50.918;4.688;2023-02-13T10:38:29;6.70;99.90
13650;DHT22;6898;50.918;4.688;2023-02-13T10:43:44;6.90;99.90
13650;DHT22;6898;50.918;4.688;2023-02-13T10:46:16;7.10;99.90
13650;DHT22;6898;50.918;4.688;2023-02-13T10:48:53;7.40;99.90
13650;DHT22;6898;50.918;4.688;2023-02-13T10:51:25;7.50;99.90
13650;DHT22;6898;50.918;4.688;2023-02-13T10:54:02;7.50;99.90
13650;DHT22;6898;50.918;4.688;2023-02-13T10:56:35;7.60;99.90
13650;DHT22;6898;50.918;4.688;2023-02-13T10:59:12;7.60;99.90
13650;DHT22;6898;50.918;4.688;2023-02-13T11:01:46;7.80;99.90
13650;DHT22;6898;50.918;4.688;2023-02-13T11:04:16;8.60;99.90
13650;DHT22;6898;50.918;4.688;2023-02-13T11:06:46;9.50;99.90
13650;DHT22;6898;50.918;4.688;2023-02-13T11:09:19;10.60;99.90
13650;DHT22;6898;50.918;4.688;2023-02-13T11:11:47;11.40;99.90
13650;DHT22;6898;50.918;4.688;2023-02-13T11:14:20;12.20;99.90
13650;DHT22;6898;50.918;4.688;2023-02-13T11:17:15;12.90;99.90
13650;DHT22;6898;50.918;4.688;2023-02-13T11:19:46;13.60;99.90
13650;DHT22;6898;50.918;4.688;2023-02-13T11:22:25;14.10;99.90
13650;DHT22;6898;50.918;4.688;2023-02-13T11:24:56;14.70;99.90
13650;DHT22;6898;50.918;4.688;2023-02-13T11:27:26;15.30;99.90
13650;DHT22;6898;50.918;4.688;2023-02-13T11:29:55;15.80;99.90
13650;DHT22;6898;50.918;4.688;2023-02-13T11:32:24;16.30;99.90
13650;DHT22;6898;50.918;4.688;2023-02-13T11:34:52;16.70;99.90
13650;DHT22;6898;50.918;4.688;2023-02-13T11:37:22;17.00;99.90
13650;DHT22;6898;50.918;4.688;2023-02-13T11:39:51;17.10;99.90
13650;DHT22;6898;50.918;4.688;2023-02-13T11:42:23;17.20;99.90
13650;DHT22;6898;50.918;4.688;2023-02-13T11:44:53;17.10;99.90
13650;DHT22;6898;50.918;4.688;2023-02-13T11:47:32;17.40;99.90
13650;DHT22;6898;50.918;4.688;2023-02-13T11:50:00;17.10;99.90
13650;DHT22;6898;50.918;4.688;2023-02-13T11:52:30;16.20;99.90
13650;DHT22;6898;50.918;4.688;2023-02-13T11:54:59;15.20;99.90
13650;DHT22;6898;50.918;4.688;2023-02-13T11:57:32;14.30;99.90
13650;DHT22;6898;50.918;4.688;2023-02-13T12:00:01;13.60;99.90
13650;DHT22;6898;50.918;4.688;2023-02-13T12:02:47;12.70;99.90
13650;DHT22;6898;50.918;4.688;2023-02-13T12:05:18;12.20;99.90
13650;DHT22;6898;50.918;4.688;2023-02-13T12:08:21;11.80;99.90
13650;DHT22;6898;50.918;4.688;2023-02-13T12:10:49;11.60;99.90
13650;DHT22;6898;50.918;4.688;2023-02-13T12:16:05;11.20;99.90
13650;DHT22;6898;50.918;4.688;2023-02-13T12:18:37;11.20;99.90
13650;DHT22;6898;50.918;4.688;2023-02-13T12:21:12;11.10;99.90
13650;DHT22;6898;50.918;4.688;2023-02-13T12:23:45;11.10;99.90
13650;DHT22;6898;50.918;4.688;2023-02-13T12:26:17;11.00;99.90
13650;DHT22;6898;50.918;4.688;2023-02-13T12:28:54;11.00;99.90
13650;DHT22;6898;50.918;4.688;2023-02-13T12:34:29;11.20;99.90
13650;DHT22;6898;50.918;4.688;2023-02-13T12:37:07;11.40;99.90
13650;DHT22;6898;50.918;4.688;2023-02-13T12:39:46;11.20;99.90
13650;DHT22;6898;50.918;4.688;2023-02-13T12:42:21;11.10;99.90
13650;DHT22;6898;50.918;4.688;2023-02-13T12:44:58;11.10;99.90
13650;DHT22;6898;50.918;4.688;2023-02-13T12:47:30;11.00;99.90
13650;DHT22;6898;50.918;4.688;2023-02-13T12:50:08;11.00;99.90
13650;DHT22;6898;50.918;4.688;2023-02-13T12:58:56;11.00;99.90
13650;DHT22;6898;50.918;4.688;2023-02-13T13:01:37;11.10;99.90
13650;DHT22;6898;50.918;4.688;2023-02-13T13:04:10;11.20;99.90
13650;DHT22;6898;50.918;4.688;2023-02-13T13:06:55;11.20;99.90
13650;DHT22;6898;50.918;4.688;2023-02-13T13:09:29;11.20;99.90
13650;DHT22;6898;50.918;4.688;2023-02-13T13:12:14;11.20;99.90
13650;DHT22;6898;50.918;4.688;2023-02-13T13:14:47;11.20;99.90
13650;DHT22;6898;50.918;4.688;2023-02-13T13:17:21;11.20;99.90
13650;DHT22;6898;50.918;4.688;2023-02-13T13:19:54;11.20;99.90
13650;DHT22;6898;50.918;4.688;2023-02-13T13:22:27;11.20;99.90
13650;DHT22;6898;50.918;4.688;2023-02-13T13:25:00;11.20;99.90
13650;DHT22;6898;50.918;4.688;2023-02-13T13:27:30;11.20;99.90
13650;DHT22;6898;50.918;4.688;2023-02-13T13:30:00;11.20;99.90
13650;DHT22;6898;50.918;4.688;2023-02-13T13:32:29;11.30;99.90
13650;DHT22;6898;50.918;4.688;2023-02-13T13:34:57;11.30;99.90
13650;DHT22;6898;50.918;4.688;2023-02-13T13:37:29;11.30;99.90
13650;DHT22;6898;50.918;4.688;2023-02-13T13:40:00;11.30;99.90
13650;DHT22;6898;50.918;4.688;2023-02-13T13:42:33;11.30;99.90
13650;DHT22;6898;50.918;4.688;2023-02-13T13:45:05;11.30;99.90
13650;DHT22;6898;50.918;4.688;2023-02-13T13:47:41;11.40;99.90
13650;DHT22;6898;50.918;4.688;2023-02-13T13:50:18;11.40;99.90
13650;DHT22;6898;50.918;4.688;2023-02-13T13:53:08;11.50;99.90
13650;DHT22;6898;50.918;4.688;2023-02-13T13:58:25;11.50;99.90
13650;DHT22;6898;50.918;4.688;2023-02-13T14:01:14;11.50;99.90
13650;DHT22;6898;50.918;4.688;2023-02-13T14:03:42;11.50;99.90
13650;DHT22;6898;50.918;4.688;2023-02-13T14:06:11;11.50;99.90
13650;DHT22;6898;50.918;4.688;2023-02-13T14:08:55;11.50;99.90
13650;DHT22;6898;50.918;4.688;2023-02-13T14:11:24;11.60;99.90
13650;DHT22;6898;50.918;4.688;2023-02-13T14:13:53;11.50;99.90
13650;DHT22;6898;50.918;4.688;2023-02-13T14:16:36;11.50;99.90
13650;DHT22;6898;50.918;4.688;2023-02-13T14:19:04;11.50;99.90
13650;DHT22;6898;50.918;4.688;2023-02-13T14:21:33;11.50;99.90
13650;DHT22;6898;50.918;4.688;2023-02-13T14:24:02;11.60;99.90
13650;DHT22;6898;50.918;4.688;2023-02-13T14:26:38;11.60;99.90
13650;DHT22;6898;50.918;4.688;2023-02-13T14:31:57;11.60;99.90
13650;DHT22;6898;50.918;4.688;2023-02-13T14:34:27;11.60;99.90
13650;DHT22;6898;50.918;4.688;2023-02-13T14:37:02;11.60;99.90
13650;DHT22;6898;50.918;4.688;2023-02-13T14:39:34;11.80;99.90
13650;DHT22;6898;50.918;4.688;2023-02-13T14:42:02;11.80;99.90
13650;DHT22;6898;50.918;4.688;2023-02-13T14:44:31;11.70;99.90
13650;DHT22;6898;50.918;4.688;2023-02-13T14:47:01;11.70;99.90
13650;DHT22;6898;50.918;4.688;2023-02-13T14:49:30;11.70;99.90
13650;DHT22;6898;50.918;4.688;2023-02-13T14:52:02;11.70;99.90
13650;DHT22;6898;50.918;4.688;2023-02-13T14:54:32;11.70;99.90
13650;DHT22;6898;50.918;4.688;2023-02-13T14:57:05;11.70;99.90
13650;DHT22;6898;50.918;4.688;2023-02-13T14:59:35;11.70;99.90
13650;DHT22;6898;50.918;4.688;2023-02-13T15:02:08;11.70;99.90
13650;DHT22;6898;50.918;4.688;2023-02-13T15:04:40;11.70;99.90
13650;DHT22;6898;50.918;4.688;2023-02-13T15:07:12;11.70;99.90
13650;DHT22;6898;50.918;4.688;2023-02-13T15:09:44;11.70;99.90
13650;DHT22;6898;50.918;4.688;2023-02-13T15:12:25;11.60;99.90
13650;DHT22;6898;50.918;4.688;2023-02-13T15:14:53;11.70;99.90
13650;DHT22;6898;50.918;4.688;2023-02-13T15:17:22;11.70;99.90
13650;DHT22;6898;50.918;4.688;2023-02-13T15:19:51;11.60;99.90
13650;DHT22;6898;50.918;4.688;2023-02-13T15:22:20;11.60;99.90
13650;DHT22;6898;50.918;4.688;2023-02-13T15:24:51;11.60;99.90
13650;DHT22;6898;50.918;4.688;2023-02-13T15:27:20;11.60;99.90
13650;DHT22;6898;50.918;4.688;2023-02-13T15:29:54;11.70;99.90
13650;DHT22;6898;50.918;4.688;2023-02-13T15:32:26;11.60;99.90
13650;DHT22;6898;50.918;4.688;2023-02-13T15:34:54;11.60;99.90
13650;DHT22;6898;50.918;4.688;2023-02-13T15:37:22;11.60;99.90
13650;DHT22;6898;50.918;4.688;2023-02-13T15:39:51;11.50;99.90
13650;DHT22;6898;50.918;4.688;2023-02-13T15:42:19;11.50;99.90
13650;DHT22;6898;50.918;4.688;2023-02-13T15:44:48;11.50;99.90
13650;DHT22;6898;50.918;4.688;2023-02-13T15:47:22;11.50;99.90
13650;DHT22;6898;50.918;4.688;2023-02-13T15:49:50;11.50;99.90
13650;DHT22;6898;50.918;4.688;2023-02-13T15:52:19;11.40;99.90
13650;DHT22;6898;50.918;4.688;2023-02-13T15:54:49;11.40;99.90
13650;DHT22;6898;50.918;4.688;2023-02-13T15:57:17;11.30;99.90
13650;DHT22;6898;50.918;4.688;2023-02-13T15:59:46;11.30;99.90
13650;DHT22;6898;50.918;4.688;2023-02-13T16:02:16;11.30;99.90
13650;DHT22;6898;50.918;4.688;2023-02-13T16:04:47;11.20;99.90
13650;DHT22;6898;50.918;4.688;2023-02-13T16:07:16;11.20;99.90
13650;DHT22;6898;50.918;4.688;2023-02-13T16:09:44;11.20;99.90
13650;DHT22;6898;50.918;4.688;2023-02-13T16:12:17;11.20;99.90
13650;DHT22;6898;50.918;4.688;2023-02-13T16:14:47;11.20;99.90
13650;DHT22;6898;50.918;4.688;2023-02-13T16:17:19;11.10;99.90
13650;DHT22;6898;50.918;4.688;2023-02-13T16:19:54;11.10;99.90
13650;DHT22;6898;50.918;4.688;2023-02-13T16:22:26;11.00;99.90
13650;DHT22;6898;50.918;4.688;2023-02-13T16:24:57;11.00;99.90
13650;DHT22;6898;50.918;4.688;2023-02-13T16:27:29;11.00;99.90
13650;DHT22;6898;50.918;4.688;2023-02-13T16:29:57;10.90;99.90
13650;DHT22;6898;50.918;4.688;2023-02-13T16:32:27;10.90;99.90
13650;DHT22;6898;50.918;4.688;2023-02-13T16:35:15;10.80;99.90
13650;DHT22;6898;50.918;4.688;2023-02-13T16:37:48;10.80;99.90
13650;DHT22;6898;50.918;4.688;2023-02-13T16:45:53;10.70;99.90
13650;DHT22;6898;50.918;4.688;2023-02-13T16:48:21;10.60;99.90
13650;DHT22;6898;50.918;4.688;2023-02-13T16:50:55;10.50;99.90
13650;DHT22;6898;50.918;4.688;2023-02-13T16:53:23;10.50;99.90
13650;DHT22;6898;50.918;4.688;2023-02-13T16:55:55;10.40;99.90
13650;DHT22;6898;50.918;4.688;2023-02-13T16:58:23;10.30;99.90